sensor_id;sensor_type;location;lat;lon;timestamp;pressure;altitude;pressure_sealevel;temperature;humidity
46303;BME280;32029;51.358;5.628;2024-01-10T00:00:01;102746.59;;;-2.58;66.83
46303;BME280;32029;51.358;5.628;2024-01-10T00:02:28;102747.56;;;-2.59;66.97
46303;BME280;32029;51.358;5.628;2024-01-10T00:04:54;102749.38;;;-2.59;66.97
46303;BME280;32029;51.358;5.628;2024-01-10T00:07:20;102743.19;;;-2.61;66.64
46303;BME280;32029;51.358;5.628;2024-01-10T00:09:46;102746.00;;;-2.66;67.03
46303;BME280;32029;51.358;5.628;2024-01-10T00:12:12;102731.03;;;-2.73;67.10
46303;BME280;32029;51.358;5.628;2024-01-10T00:14:38;102729.19;;;-2.71;67.08
46303;BME280;32029;51.358;5.628;2024-01-10T00:17:04;102729.28;;;-2.74;67.14
46303;BME280;32029;51.358;5.628;2024-01-10T00:19:30;102729.53;;;-2.80;67.38
46303;BME280;32029;51.358;5.628;2024-01-10T00:21:56;102740.88;;;-2.72;67.56
46303;BME280;32029;51.358;5.628;2024-01-10T00:24:24;102720.41;;;-2.76;67.73
46303;BME280;32029;51.358;5.628;2024-01-10T00:26:50;102718.88;;;-2.83;68.16
46303;BME280;32029;51.358;5.628;2024-01-10T00:29:18;102726.88;;;-2.82;68.34
46303;BME280;32029;51.358;5.628;2024-01-10T00:31:45;102706.69;;;-2.93;68.63
46303;BME280;32029;51.358;5.628;2024-01-10T00:34:11;102717.34;;;-2.90;68.87
46303;BME280;32029;51.358;5.628;2024-01-10T00:36:37;102729.72;;;-2.86;69.41
46303;BME280;32029;51.358;5.628;2024-01-10T00:39:05;102716.63;;;-2.96;69.15
46303;BME280;32029;51.358;5.628;2024-01-10T00:41:34;102704.34;;;-3.03;69.33
46303;BME280;32029;51.358;5.628;2024-01-10T00:44:04;102710.44;;;-2.98;69.24
46303;BME280;32029;51.358;5.628;2024-01-10T00:46:30;102711.63;;;-3.06;69.25
46303;BME280;32029;51.358;5.628;2024-01-10T00:48:56;102717.69;;;-3.00;69.47
46303;BME280;32029;51.358;5.628;2024-01-10T00:51:22;102714.22;;;-3.03;69.52
46303;BME280;32029;51.358;5.628;2024-01-10T00:53:48;102716.22;;;-3.10;69.55
46303;BME280;32029;51.358;5.628;2024-01-10T00:56:18;102715.44;;;-3.12;69.74
46303;BME280;32029;51.358;5.628;2024-01-10T00:58:44;102698.75;;;-3.22;70.03
46303;BME280;32029;51.358;5.628;2024-01-10T01:01:11;102697.97;;;-3.25;69.87
46303;BME280;32029;51.358;5.628;2024-01-10T01:03:39;102692.66;;;-3.27;70.04
46303;BME280;32029;51.358;5.628;2024-01-10T01:06:05;102707.75;;;-3.24;70.20
46303;BME280;32029;51.358;5.628;2024-01-10T01:08:32;102691.03;;;-3.32;70.54
46303;BME280;32029;51.358;5.628;2024-01-10T01:10:58;102702.63;;;-3.30;70.61
46303;BME280;32029;51.358;5.628;2024-01-10T01:13:26;102696.47;;;-3.34;70.67
46303;BME280;32029;51.358;5.628;2024-01-10T01:15:52;102693.19;;;-3.42;70.49
46303;BME280;32029;51.358;5.628;2024-01-10T01:18:18;102715.09;;;-3.29;70.61
46303;BME280;32029;51.358;5.628;2024-01-10T01:20:45;102720.56;;;-3.32;70.69
46303;BME280;32029;51.358;5.628;2024-01-10T01:23:14;102717.09;;;-3.34;70.65
46303;BME280;32029;51.358;5.628;2024-01-10T01:25:40;102703.03;;;-3.42;70.62
46303;BME280;32029;51.358;5.628;2024-01-10T01:28:07;102712.69;;;-3.37;70.92
46303;BME280;32029;51.358;5.628;2024-01-10T01:30:33;102694.16;;;-3.45;70.89
46303;BME280;32029;51.358;5.628;2024-01-10T01:32:59;102709.97;;;-3.35;70.83
46303;BME280;32029;51.358;5.628;2024-01-10T01:35:26;102687.19;;;-3.50;70.65
46303;BME280;32029;51.358;5.628;2024-01-10T01:37:52;102704.69;;;-3.38;70.63
46303;BME280;32029;51.358;5.628;2024-01-10T01:40:18;102696.94;;;-3.48;70.74
46303;BME280;32029;51.358;5.628;2024-01-10T01:42:45;102702.03;;;-3.40;70.47
46303;BME280;32029;51.358;5.628;2024-01-10T01:45:12;102700.38;;;-3.44;70.33
46303;BME280;32029;51.358;5.628;2024-01-10T01:47:39;102708.50;;;-3.46;70.66
46303;BME280;32029;51.358;5.628;2024-01-10T01:50:07;102696.28;;;-3.54;70.51
46303;BME280;32029;51.358;5.628;2024-01-10T01:52:35;102697.97;;;-3.52;70.54
46303;BME280;32029;51.358;5.628;2024-01-10T01:55:02;102696.94;;;-3.48;70.20
46303;BME280;32029;51.358;5.628;2024-01-10T01:57:28;102697.88;;;-3.49;70.45
46303;BME280;32029;51.358;5.628;2024-01-10T01:59:57;102707.72;;;-3.49;70.45
46303;BME280;32029;51.358;5.628;2024-01-10T02:02:24;102695.19;;;-3.49;70.55
46303;BME280;32029;51.358;5.628;2024-01-10T02:04:50;102694.41;;;-3.52;70.33
46303;BME280;32029;51.358;5.628;2024-01-10T02:07:18;102699.75;;;-3.51;70.54
46303;BME280;32029;51.358;5.628;2024-01-10T02:09:44;102676.91;;;-3.64;70.28
46303;BME280;32029;51.358;5.628;2024-01-10T02:12:10;102685.56;;;-3.56;70.36
46303;BME280;32029;51.358;5.628;2024-01-10T02:14:38;102695.59;;;-3.61;70.50
46303;BME280;32029;51.358;5.628;2024-01-10T02:17:04;102692.06;;;-3.63;70.52
46303;BME280;32029;51.358;5.628;2024-01-10T02:19:31;102674.47;;;-3.72;70.53
46303;BME280;32029;51.358;5.628;2024-01-10T02:21:58;102685.03;;;-3.65;70.70
46303;BME280;32029;51.358;5.628;2024-01-10T02:24:24;102686.84;;;-3.67;70.75
46303;BME280;32029;51.358;5.628;2024-01-10T02:26:50;102678.19;;;-3.76;70.82
46303;BME280;32029;51.358;5.628;2024-01-10T02:29:16;102693.16;;;-3.68;70.77
46303;BME280;32029;51.358;5.628;2024-01-10T02:31:42;102686.06;;;-3.70;71.07
46303;BME280;32029;51.358;5.628;2024-01-10T02:34:08;102670.28;;;-3.80;71.31
46303;BME280;32029;51.358;5.628;2024-01-10T02:36:34;102686.06;;;-3.71;71.34
46303;BME280;32029;51.358;5.628;2024-01-10T02:39:02;102683.38;;;-3.70;71.38
46303;BME280;32029;51.358;5.628;2024-01-10T02:41:30;102664.16;;;-3.84;71.54
46303;BME280;32029;51.358;5.628;2024-01-10T02:43:56;102667.56;;;-3.79;71.38
46303;BME280;32029;51.358;5.628;2024-01-10T02:46:26;102684.34;;;-3.72;71.20
46303;BME280;32029;51.358;5.628;2024-01-10T02:48:55;102686.22;;;-3.74;71.50
46303;BME280;32029;51.358;5.628;2024-01-10T02:51:22;102683.53;;;-3.74;71.63
46303;BME280;32029;51.358;5.628;2024-01-10T02:53:50;102670.47;;;-3.86;71.54
46303;BME280;32029;51.358;5.628;2024-01-10T02:56:16;102673.91;;;-3.81;71.87
46303;BME280;32029;51.358;5.628;2024-01-10T02:58:44;102666.97;;;-3.88;71.87
46303;BME280;32029;51.358;5.628;2024-01-10T03:01:14;102672.13;;;-3.82;71.81
46303;BME280;32029;51.358;5.628;2024-01-10T03:03:40;102667.75;;;-3.85;71.99
46303;BME280;32029;51.358;5.628;2024-01-10T03:06:06;102665.03;;;-3.83;71.86
46303;BME280;32029;51.358;5.628;2024-01-10T03:08:32;102674.00;;;-3.84;71.98
46303;BME280;32029;51.358;5.628;2024-01-10T03:10:58;102670.47;;;-3.86;72.29
46303;BME280;32029;51.358;5.628;2024-01-10T03:13:24;102664.22;;;-3.85;72.15
46303;BME280;32029;51.358;5.628;2024-01-10T03:15:52;102663.28;;;-3.84;72.29
46303;BME280;32029;51.358;5.628;2024-01-10T03:18:18;102657.03;;;-3.85;72.22
46303;BME280;32029;51.358;5.628;2024-01-10T03:20:44;102658.00;;;-3.87;72.44
46303;BME280;32029;51.358;5.628;2024-01-10T03:23:12;102642.13;;;-3.93;72.59
46303;BME280;32029;51.358;5.628;2024-01-10T03:25:38;102647.28;;;-3.87;72.78
46303;BME280;32029;51.358;5.628;2024-01-10T03:28:04;102654.50;;;-3.89;73.04
46303;BME280;32029;51.358;5.628;2024-01-10T03:30:30;102642.13;;;-3.93;73.28
46303;BME280;32029;51.358;5.628;2024-01-10T03:32:56;102638.59;;;-3.96;73.06
46303;BME280;32029;51.358;5.628;2024-01-10T03:35:22;102635.19;;;-4.01;73.24
46303;BME280;32029;51.358;5.628;2024-01-10T03:37:48;102637.91;;;-4.02;73.26
46303;BME280;32029;51.358;5.628;2024-01-10T03:40:14;102642.31;;;-4.00;73.46
46303;BME280;32029;51.358;5.628;2024-01-10T03:42:40;102633.72;;;-4.11;73.56
46303;BME280;32029;51.358;5.628;2024-01-10T03:45:06;102641.63;;;-4.06;73.82
46303;BME280;32029;51.358;5.628;2024-01-10T03:47:34;102641.59;;;-4.05;73.75
46303;BME280;32029;51.358;5.628;2024-01-10T03:50:00;102648.69;;;-4.04;73.75
46303;BME280;32029;51.358;5.628;2024-01-10T03:52:28;102639.09;;;-4.11;73.94
46303;BME280;32029;51.358;5.628;2024-01-10T03:54:54;102640.75;;;-4.07;74.00
46303;BME280;32029;51.358;5.628;2024-01-10T03:57:22;102642.50;;;-4.06;74.07
46303;BME280;32029;51.358;5.628;2024-01-10T03:59:48;102638.06;;;-4.07;74.06
46303;BME280;32029;51.358;5.628;2024-01-10T04:02:14;102621.34;;;-4.15;74.01
46303;BME280;32029;51.358;5.628;2024-01-10T04:04:41;102626.53;;;-4.09;74.03
46303;BME280;32029;51.358;5.628;2024-01-10T04:07:07;102625.66;;;-4.09;74.19
46303;BME280;32029;51.358;5.628;2024-01-10T04:09:33;102626.53;;;-4.09;74.20
46303;BME280;32029;51.358;5.628;2024-01-10T04:11:59;102616.88;;;-4.14;74.44
46303;BME280;32029;51.358;5.628;2024-01-10T04:14:25;102616.84;;;-4.13;74.39
46303;BME280;32029;51.358;5.628;2024-01-10T04:16:53;102621.09;;;-4.07;74.38
46303;BME280;32029;51.358;5.628;2024-01-10T04:19:19;102617.56;;;-4.08;74.33
46303;BME280;32029;51.358;5.628;2024-01-10T04:21:45;102604.44;;;-4.17;74.25
46303;BME280;32029;51.358;5.628;2024-01-10T04:24:11;102612.34;;;-4.12;74.28
46303;BME280;32029;51.358;5.628;2024-01-10T04:26:37;102615.91;;;-4.12;74.46
46303;BME280;32029;51.358;5.628;2024-01-10T04:29:03;102618.63;;;-4.13;74.78
46303;BME280;32029;51.358;5.628;2024-01-10T04:31:29;102603.69;;;-4.22;75.17
46303;BME280;32029;51.358;5.628;2024-01-10T04:33:57;102603.75;;;-4.24;74.86
46303;BME280;32029;51.358;5.628;2024-01-10T04:36:23;102612.59;;;-4.20;75.14
46303;BME280;32029;51.358;5.628;2024-01-10T04:38:51;102604.69;;;-4.25;75.29
46303;BME280;32029;51.358;5.628;2024-01-10T04:41:19;102606.38;;;-4.22;75.53
46303;BME280;32029;51.358;5.628;2024-01-10T04:43:45;102608.16;;;-4.21;75.52
46303;BME280;32029;51.358;5.628;2024-01-10T04:46:11;102616.19;;;-4.21;75.60
46303;BME280;32029;51.358;5.628;2024-01-10T04:48:37;102596.69;;;-4.26;75.67
46303;BME280;32029;51.358;5.628;2024-01-10T04:51:05;102619.69;;;-4.19;75.59
46303;BME280;32029;51.358;5.628;2024-01-10T04:53:33;102621.44;;;-4.18;75.84
46303;BME280;32029;51.358;5.628;2024-01-10T04:55:59;102602.88;;;-4.24;75.76
46303;BME280;32029;51.358;5.628;2024-01-10T04:58:25;102610.00;;;-4.23;75.89
46303;BME280;32029;51.358;5.628;2024-01-10T05:00:51;102600.28;;;-4.27;75.69
46303;BME280;32029;51.358;5.628;2024-01-10T05:03:19;102615.28;;;-4.20;75.52
46303;BME280;32029;51.358;5.628;2024-01-10T05:05:45;102609.06;;;-4.22;75.54
46303;BME280;32029;51.358;5.628;2024-01-10T05:08:13;102599.44;;;-4.28;75.80
46303;BME280;32029;51.358;5.628;2024-01-10T05:10:39;102601.16;;;-4.27;75.92
46303;BME280;32029;51.358;5.628;2024-01-10T05:13:05;102602.13;;;-4.29;76.07
46303;BME280;32029;51.358;5.628;2024-01-10T05:15:31;102598.72;;;-4.34;76.31
46303;BME280;32029;51.358;5.628;2024-01-10T05:17:59;102596.06;;;-4.34;76.47
46303;BME280;32029;51.358;5.628;2024-01-10T05:20:26;102598.94;;;-4.40;76.94
46303;BME280;32029;51.358;5.628;2024-01-10T05:22:52;102613.16;;;-4.38;77.17
46303;BME280;32029;51.358;5.628;2024-01-10T05:25:18;102615.03;;;-4.40;77.07
46303;BME280;32029;51.358;5.628;2024-01-10T05:27:46;102598.94;;;-4.40;77.13
46303;BME280;32029;51.358;5.628;2024-01-10T05:30:12;102598.16;;;-4.44;76.91
46303;BME280;32029;51.358;5.628;2024-01-10T05:32:39;102607.72;;;-4.35;76.79
46303;BME280;32029;51.358;5.628;2024-01-10T05:35:05;102613.09;;;-4.37;76.40
46303;BME280;32029;51.358;5.628;2024-01-10T05:37:31;102605.97;;;-4.36;76.37
46303;BME280;32029;51.358;5.628;2024-01-10T05:40:00;102604.94;;;-4.32;76.45
46303;BME280;32029;51.358;5.628;2024-01-10T05:42:26;102606.69;;;-4.31;76.35
46303;BME280;32029;51.358;5.628;2024-01-10T05:44:54;102602.97;;;-4.27;76.23
46303;BME280;32029;51.358;5.628;2024-01-10T05:47:20;102596.69;;;-4.26;76.25
46303;BME280;32029;51.358;5.628;2024-01-10T05:49:47;102595.72;;;-4.24;76.11
46303;BME280;32029;51.358;5.628;2024-01-10T05:52:15;102595.81;;;-4.27;76.21
46303;BME280;32029;51.358;5.628;2024-01-10T05:54:41;102607.31;;;-4.23;76.42
46303;BME280;32029;51.358;5.628;2024-01-10T05:57:07;102603.72;;;-3.96;76.04
46303;BME280;32029;51.358;5.628;2024-01-10T05:59:37;102597.00;;;-3.81;75.39
46303;BME280;32029;51.358;5.628;2024-01-10T06:02:03;102604.09;;;-3.80;75.06
46303;BME280;32029;51.358;5.628;2024-01-10T06:04:30;102595.59;;;-3.92;74.86
46303;BME280;32029;51.358;5.628;2024-01-10T06:06:58;102588.59;;;-3.98;75.00
46303;BME280;32029;51.358;5.628;2024-01-10T06:09:24;102601.91;;;-3.93;75.06
46303;BME280;32029;51.358;5.628;2024-01-10T06:11:51;102592.06;;;-3.95;74.96
46303;BME280;32029;51.358;5.628;2024-01-10T06:14:17;102585.38;;;-4.08;75.06
46303;BME280;32029;51.358;5.628;2024-01-10T06:16:44;102587.19;;;-4.08;75.18
46303;BME280;32029;51.358;5.628;2024-01-10T06:19:11;102604.75;;;-4.00;75.28
46303;BME280;32029;51.358;5.628;2024-01-10T06:21:40;102600.34;;;-4.01;74.93
46303;BME280;32029;51.358;5.628;2024-01-10T06:24:06;102595.91;;;-4.02;74.21
46303;BME280;32029;51.358;5.628;2024-01-10T06:26:32;102587.22;;;-4.10;74.33
46303;BME280;32029;51.358;5.628;2024-01-10T06:28:58;102587.19;;;-4.08;74.32
46303;BME280;32029;51.358;5.628;2024-01-10T06:31:26;102595.91;;;-4.02;74.06
46303;BME280;32029;51.358;5.628;2024-01-10T06:33:52;102598.59;;;-4.02;74.48
46303;BME280;32029;51.358;5.628;2024-01-10T06:36:20;102587.13;;;-4.07;74.53
46303;BME280;32029;51.358;5.628;2024-01-10T06:38:46;102592.38;;;-4.04;74.46
46303;BME280;32029;51.358;5.628;2024-01-10T06:41:13;102611.69;;;-3.92;74.05
46303;BME280;32029;51.358;5.628;2024-01-10T06:43:42;102601.94;;;-3.95;74.06
46303;BME280;32029;51.358;5.628;2024-01-10T06:46:09;102606.31;;;-3.92;74.29
46303;BME280;32029;51.358;5.628;2024-01-10T06:48:36;102596.72;;;-4.00;74.03
46303;BME280;32029;51.358;5.628;2024-01-10T06:51:02;102616.97;;;-3.89;74.20
46303;BME280;32029;51.358;5.628;2024-01-10T06:53:29;102599.06;;;-3.89;74.23
46303;BME280;32029;51.358;5.628;2024-01-10T06:55:55;102595.44;;;-3.88;74.17
46303;BME280;32029;51.358;5.628;2024-01-10T06:58:22;102574.31;;;-3.99;73.76
46303;BME280;32029;51.358;5.628;2024-01-10T07:00:50;102584.75;;;-3.89;74.06
46303;BME280;32029;51.358;5.628;2024-01-10T07:03:16;102589.09;;;-3.85;73.89
46303;BME280;32029;51.358;5.628;2024-01-10T07:05:43;102580.91;;;-3.82;74.04
46303;BME280;32029;51.358;5.628;2024-01-10T07:08:10;102594.06;;;-3.75;74.07
46303;BME280;32029;51.358;5.628;2024-01-10T07:10:38;102577.38;;;-3.83;74.06
46303;BME280;32029;51.358;5.628;2024-01-10T07:13:06;102563.16;;;-3.85;74.15
46303;BME280;32029;51.358;5.628;2024-01-10T07:15:32;102586.88;;;-3.73;74.29
46303;BME280;32029;51.358;5.628;2024-01-10T07:18:00;102572.63;;;-3.75;74.39
46303;BME280;32029;51.358;5.628;2024-01-10T07:20:26;102574.31;;;-3.72;74.20
46303;BME280;32029;51.358;5.628;2024-01-10T07:22:53;102576.06;;;-3.71;74.27
46303;BME280;32029;51.358;5.628;2024-01-10T07:25:23;102584.13;;;-3.71;74.25
46303;BME280;32029;51.358;5.628;2024-01-10T07:27:52;102569.78;;;-3.70;74.38
46303;BME280;32029;51.358;5.628;2024-01-10T07:30:19;102584.03;;;-3.68;74.48
46303;BME280;32029;51.358;5.628;2024-01-10T07:32:46;102572.69;;;-3.76;74.76
46303;BME280;32029;51.358;5.628;2024-01-10T07:35:13;102585.75;;;-3.67;74.91
46303;BME280;32029;51.358;5.628;2024-01-10T07:37:43;102592.91;;;-3.66;74.55
46303;BME280;32029;51.358;5.628;2024-01-10T07:40:09;102585.91;;;-3.70;74.33
46303;BME280;32029;51.358;5.628;2024-01-10T07:42:36;102587.75;;;-3.72;74.36
46303;BME280;32029;51.358;5.628;2024-01-10T07:45:05;102589.63;;;-3.74;74.47
46303;BME280;32029;51.358;5.628;2024-01-10T07:47:31;102581.50;;;-3.73;74.45
46303;BME280;32029;51.358;5.628;2024-01-10T07:50:00;102582.38;;;-3.72;74.43
46303;BME280;32029;51.358;5.628;2024-01-10T07:52:27;102586.88;;;-3.73;73.94
46303;BME280;32029;51.358;5.628;2024-01-10T07:54:55;102598.03;;;-3.60;74.30
46303;BME280;32029;51.358;5.628;2024-01-10T07:57:23;102602.38;;;-3.56;74.07
46303;BME280;32029;51.358;5.628;2024-01-10T07:59:51;102516.25;;;-4.00;73.81
46303;BME280;32029;51.358;5.628;2024-01-10T08:02:20;102595.97;;;-3.52;73.87
46303;BME280;32029;51.358;5.628;2024-01-10T08:04:49;102593.44;;;-3.56;73.89
46303;BME280;32029;51.358;5.628;2024-01-10T08:07:15;102602.09;;;-3.48;73.87
46303;BME280;32029;51.358;5.628;2024-01-10T08:09:42;102598.38;;;-3.44;73.82
46303;BME280;32029;51.358;5.628;2024-01-10T08:12:08;102595.69;;;-3.44;73.29
46303;BME280;32029;51.358;5.628;2024-01-10T08:14:34;102592.16;;;-3.45;72.92
46303;BME280;32029;51.358;5.628;2024-01-10T08:17:00;102606.16;;;-3.36;72.96
46303;BME280;32029;51.358;5.628;2024-01-10T08:19:29;102608.75;;;-3.33;72.97
46303;BME280;32029;51.358;5.628;2024-01-10T08:21:55;102609.69;;;-3.34;73.24
46303;BME280;32029;51.358;5.628;2024-01-10T08:24:24;102600.00;;;-3.38;73.11
46303;BME280;32029;51.358;5.628;2024-01-10T08:26:53;102597.22;;;-3.35;72.75
46303;BME280;32029;51.358;5.628;2024-01-10T08:29:21;102628.84;;;-3.20;73.06
46303;BME280;32029;51.358;5.628;2024-01-10T08:31:48;102611.00;;;-3.21;72.84
46303;BME280;32029;51.358;5.628;2024-01-10T08:34:14;102618.00;;;-3.17;72.85
46303;BME280;32029;51.358;5.628;2024-01-10T08:36:42;102612.69;;;-3.18;72.93
46303;BME280;32029;51.358;5.628;2024-01-10T08:39:09;102620.31;;;-3.06;72.59
46303;BME280;32029;51.358;5.628;2024-01-10T08:41:37;102619.47;;;-3.08;72.56
46303;BME280;32029;51.358;5.628;2024-01-10T08:44:11;102612.31;;;-3.08;72.21
46303;BME280;32029;51.358;5.628;2024-01-10T08:46:37;102626.34;;;-3.00;72.19
46303;BME280;32029;51.358;5.628;2024-01-10T08:49:04;102612.19;;;-3.05;72.40
46303;BME280;32029;51.358;5.628;2024-01-10T08:51:31;102617.25;;;-2.96;72.45
46303;BME280;32029;51.358;5.628;2024-01-10T08:53:58;102611.00;;;-2.96;72.88
46303;BME280;32029;51.358;5.628;2024-01-10T08:56:25;102624.75;;;-2.82;72.10
46303;BME280;32029;51.358;5.628;2024-01-10T08:58:54;102609.50;;;-2.81;71.72
46303;BME280;32029;51.358;5.628;2024-01-10T09:01:23;102627.06;;;-2.71;71.55
46303;BME280;32029;51.358;5.628;2024-01-10T09:03:50;102625.19;;;-2.69;71.84
46303;BME280;32029;51.358;5.628;2024-01-10T09:06:16;102632.91;;;-2.60;71.05
46303;BME280;32029;51.358;5.628;2024-01-10T09:08:42;102630.97;;;-2.56;70.50
46303;BME280;32029;51.358;5.628;2024-01-10T09:11:10;102620.97;;;-2.53;70.31
46303;BME280;32029;51.358;5.628;2024-01-10T09:13:39;102639.56;;;-2.47;70.69
46303;BME280;32029;51.358;5.628;2024-01-10T09:16:08;102627.88;;;-2.45;70.40
46303;BME280;32029;51.358;5.628;2024-01-10T09:18:36;102624.94;;;-2.39;69.72
46303;BME280;32029;51.358;5.628;2024-01-10T09:21:04;102638.16;;;-2.33;70.00
46303;BME280;32029;51.358;5.628;2024-01-10T09:23:31;102632.63;;;-2.30;69.48
46303;BME280;32029;51.358;5.628;2024-01-10T09:25:58;102627.97;;;-2.25;69.21
46303;BME280;32029;51.358;5.628;2024-01-10T09:28:26;102617.44;;;-2.31;68.88
46303;BME280;32029;51.358;5.628;2024-01-10T09:30:54;102631.09;;;-2.14;68.75
46303;BME280;32029;51.358;5.628;2024-01-10T09:33:22;102646.06;;;-2.07;69.16
46303;BME280;32029;51.358;5.628;2024-01-10T09:35:49;102619.16;;;-2.07;69.25
46303;BME280;32029;51.358;5.628;2024-01-10T09:38:15;102624.03;;;-1.94;69.26
46303;BME280;32029;51.358;5.628;2024-01-10T09:40:43;102623.56;;;-1.84;69.04
46303;BME280;32029;51.358;5.628;2024-01-10T09:43:11;102634.41;;;-1.63;69.46
46303;BME280;32029;51.358;5.628;2024-01-10T09:45:43;102636.50;;;-1.50;68.13
46303;BME280;32029;51.358;5.628;2024-01-10T09:48:14;102638.88;;;-1.42;66.60
46303;BME280;32029;51.358;5.628;2024-01-10T09:50:42;102649.31;;;-1.34;66.83
46303;BME280;32029;51.358;5.628;2024-01-10T09:53:16;102637.34;;;-1.27;66.46
46303;BME280;32029;51.358;5.628;2024-01-10T09:55:47;102634.19;;;-1.16;65.75
46303;BME280;32029;51.358;5.628;2024-01-10T09:58:14;102643.38;;;-1.02;65.65
46303;BME280;32029;51.358;5.628;2024-01-10T10:00:41;102628.75;;;-0.96;66.18
46303;BME280;32029;51.358;5.628;2024-01-10T10:03:09;102646.66;;;-0.75;65.72
46303;BME280;32029;51.358;5.628;2024-01-10T10:05:38;102629.97;;;-0.64;66.21
46303;BME280;32029;51.358;5.628;2024-01-10T10:08:07;102626.44;;;-0.45;65.66
46303;BME280;32029;51.358;5.628;2024-01-10T10:10:34;102634.31;;;-0.22;64.67
46303;BME280;32029;51.358;5.628;2024-01-10T10:13:01;102655.94;;;-0.05;64.30
46303;BME280;32029;51.358;5.628;2024-01-10T10:15:28;102645.28;;;0.11;63.34
46303;BME280;32029;51.358;5.628;2024-01-10T10:17:54;102635.88;;;0.20;63.25
46303;BME280;32029;51.358;5.628;2024-01-10T10:20:26;102636.69;;;0.39;62.89
46303;BME280;32029;51.358;5.628;2024-01-10T10:23:04;102616.03;;;0.56;63.10
46303;BME280;32029;51.358;5.628;2024-01-10T10:28:00;102626.66;;;0.93;61.08
46303;BME280;32029;51.358;5.628;2024-01-10T10:30:26;102629.19;;;1.14;61.39
46303;BME280;32029;51.358;5.628;2024-01-10T10:32:55;102630.72;;;1.35;60.92
46303;BME280;32029;51.358;5.628;2024-01-10T10:35:22;102627.00;;;1.54;60.54
46303;BME280;32029;51.358;5.628;2024-01-10T10:37:51;102624.59;;;1.81;59.49
46303;BME280;32029;51.358;5.628;2024-01-10T10:40:20;102624.22;;;2.03;58.41
46303;BME280;32029;51.358;5.628;2024-01-10T10:42:55;102622.41;;;2.19;58.14
46303;BME280;32029;51.358;5.628;2024-01-10T10:45:23;102605.03;;;2.37;57.49
46303;BME280;32029;51.358;5.628;2024-01-10T10:47:57;102592.69;;;2.48;57.04
46303;BME280;32029;51.358;5.628;2024-01-10T10:50:26;102577.25;;;2.64;55.23
46303;BME280;32029;51.358;5.628;2024-01-10T10:52:55;102615.00;;;2.97;55.91
46303;BME280;32029;51.358;5.628;2024-01-10T10:55:24;102605.13;;;3.25;56.69
46303;BME280;32029;51.358;5.628;2024-01-10T10:57:55;102609.50;;;3.56;55.66
46303;BME280;32029;51.358;5.628;2024-01-10T11:00:23;102610.97;;;3.88;55.21
46303;BME280;32029;51.358;5.628;2024-01-10T11:02:54;102615.38;;;4.18;54.41
46303;BME280;32029;51.358;5.628;2024-01-10T11:05:21;102604.91;;;4.52;53.88
46303;BME280;32029;51.358;5.628;2024-01-10T11:07:50;102604.78;;;4.80;53.48
46303;BME280;32029;51.358;5.628;2024-01-10T11:10:28;102609.81;;;5.12;53.09
46303;BME280;32029;51.358;5.628;2024-01-10T11:13:13;102606.50;;;5.45;52.08
46303;BME280;32029;51.358;5.628;2024-01-10T11:19:11;102601.59;;;6.12;51.13
46303;BME280;32029;51.358;5.628;2024-01-10T11:24:47;102591.59;;;6.48;49.68
46303;BME280;32029;51.358;5.628;2024-01-10T11:27:15;102595.19;;;6.49;49.15
46303;BME280;32029;51.358;5.628;2024-01-10T11:29:45;102595.66;;;6.43;48.46
46303;BME280;32029;51.358;5.628;2024-01-10T11:32:18;102583.59;;;6.34;47.21
46303;BME280;32029;51.358;5.628;2024-01-10T11:37:20;102566.41;;;6.45;48.00
46303;BME280;32029;51.358;5.628;2024-01-10T11:39:48;102566.28;;;6.46;47.03
46303;BME280;32029;51.358;5.628;2024-01-10T11:42:24;102574.84;;;6.42;47.49
46303;BME280;32029;51.358;5.628;2024-01-10T11:45:07;102570.41;;;6.52;47.27
46303;BME280;32029;51.358;5.628;2024-01-10T11:47:39;102564.75;;;6.66;47.99
46303;BME280;32029;51.358;5.628;2024-01-10T11:50:07;102557.81;;;6.73;47.35
46303;BME280;32029;51.358;5.628;2024-01-10T11:52:36;102559.22;;;6.79;47.51
46303;BME280;32029;51.358;5.628;2024-01-10T11:55:04;102548.03;;;6.82;47.64
46303;BME280;32029;51.358;5.628;2024-01-10T11:57:33;102559.75;;;7.06;46.27
46303;BME280;32029;51.358;5.628;2024-01-10T12:00:00;102561.97;;;7.01;46.75
46303;BME280;32029;51.358;5.628;2024-01-10T12:02:29;102547.94;;;7.06;46.83
46303;BME280;32029;51.358;5.628;2024-01-10T12:04:56;102554.03;;;7.32;46.37
46303;BME280;32029;51.358;5.628;2024-01-10T12:07:23;102556.63;;;7.67;45.73
46303;BME280;32029;51.358;5.628;2024-01-10T12:09:52;102552.63;;;7.82;44.17
46303;BME280;32029;51.358;5.628;2024-01-10T12:12:19;102542.56;;;7.72;43.47
46303;BME280;32029;51.358;5.628;2024-01-10T12:14:48;102554.66;;;7.69;44.58
46303;BME280;32029;51.358;5.628;2024-01-10T12:17:14;102554.75;;;7.79;44.33
46303;BME280;32029;51.358;5.628;2024-01-10T12:19:41;102544.41;;;7.94;44.13
46303;BME280;32029;51.358;5.628;2024-01-10T12:22:11;102535.63;;;8.11;44.44
46303;BME280;32029;51.358;5.628;2024-01-10T12:24:43;102534.88;;;8.20;43.24
46303;BME280;32029;51.358;5.628;2024-01-10T12:27:16;102541.47;;;8.18;42.36
46303;BME280;32029;51.358;5.628;2024-01-10T12:29:43;102536.09;;;8.27;43.82
46303;BME280;32029;51.358;5.628;2024-01-10T12:32:09;102536.94;;;8.60;43.56
46303;BME280;32029;51.358;5.628;2024-01-10T12:34:39;102534.31;;;9.00;43.29
46303;BME280;32029;51.358;5.628;2024-01-10T12:37:10;102532.69;;;9.49;43.06
46303;BME280;32029;51.358;5.628;2024-01-10T12:39:38;102514.72;;;9.86;42.85
46303;BME280;32029;51.358;5.628;2024-01-10T12:42:06;102503.09;;;10.22;41.92
46303;BME280;32029;51.358;5.628;2024-01-10T12:44:33;102534.00;;;10.73;40.96
46303;BME280;32029;51.358;5.628;2024-01-10T12:47:01;102526.81;;;10.99;40.80
46303;BME280;32029;51.358;5.628;2024-01-10T12:49:29;102525.31;;;11.24;40.25
46303;BME280;32029;51.358;5.628;2024-01-10T12:51:56;102533.88;;;11.49;39.46
46303;BME280;32029;51.358;5.628;2024-01-10T12:54:24;102509.63;;;11.62;38.92
46303;BME280;32029;51.358;5.628;2024-01-10T12:56:52;102529.44;;;11.93;38.70
46303;BME280;32029;51.358;5.628;2024-01-10T12:59:19;102529.78;;;12.08;37.90
46303;BME280;32029;51.358;5.628;2024-01-10T13:01:46;102517.38;;;12.04;38.21
46303;BME280;32029;51.358;5.628;2024-01-10T13:04:14;102500.25;;;12.10;37.92